sensor_id;sensor_type;location;lat;lon;timestamp;temperature;humidity
66128;DHT22;52925;52.436;-1.952;2023-02-15T00:00:45;9.90;77.80
66128;DHT22;52925;52.436;-1.952;2023-02-15T00:02:06;9.90;77.90
66128;DHT22;52925;52.436;-1.952;2023-02-15T00:03:27;9.90;77.90
66128;DHT22;52925;52.436;-1.952;2023-02-15T00:04:47;9.90;77.80
66128;DHT22;52925;52.436;-1.952;2023-02-15T00:06:08;9.90;77.80
66128;DHT22;52925;52.436;-1.952;2023-02-15T00:07:29;9.90;77.80
66128;DHT22;52925;52.436;-1.952;2023-02-15T00:08:50;9.90;77.70
66128;DHT22;52925;52.436;-1.952;2023-02-15T00:10:10;9.90;77.80
66128;DHT22;52925;52.436;-1.952;2023-02-15T00:11:31;9.80;77.60
66128;DHT22;52925;52.436;-1.952;2023-02-15T00:13:01;9.80;77.60
66128;DHT22;52925;52.436;-1.952;2023-02-15T00:14:23;9.90;77.70
66128;DHT22;52925;52.436;-1.952;2023-02-15T00:15:43;9.90;77.60
66128;DHT22;52925;52.436;-1.952;2023-02-15T00:17:04;9.90;77.60
66128;DHT22;52925;52.436;-1.952;2023-02-15T00:18:25;9.80;77.60
66128;DHT22;52925;52.436;-1.952;2023-02-15T00:19:45;9.80;77.60
66128;DHT22;52925;52.436;-1.952;2023-02-15T00:21:07;9.80;77.60
66128;DHT22;52925;52.436;-1.952;2023-02-15T00:22:28;9.80;78.30
66128;DHT22;52925;52.436;-1.952;2023-02-15T00:23:49;9.80;77.60
66128;DHT22;52925;52.436;-1.952;2023-02-15T00:25:09;9.80;77.60
66128;DHT22;52925;52.436;-1.952;2023-02-15T00:26:30;9.80;77.50
66128;DHT22;52925;52.436;-1.952;2023-02-15T00:27:50;9.80;77.60
66128;DHT22;52925;52.436;-1.952;2023-02-15T00:29:13;9.90;77.60
66128;DHT22;52925;52.436;-1.952;2023-02-15T00:30:34;9.90;77.50
66128;DHT22;52925;52.436;-1.952;2023-02-15T00:31:55;9.80;77.50
66128;DHT22;52925;52.436;-1.952;2023-02-15T00:33:17;9.80;77.50
66128;DHT22;52925;52.436;-1.952;2023-02-15T00:34:37;9.80;77.50
66128;DHT22;52925;52.436;-1.952;2023-02-15T00:35:59;9.80;77.50
66128;DHT22;52925;52.436;-1.952;2023-02-15T00:37:19;9.80;77.50
66128;DHT22;52925;52.436;-1.952;2023-02-15T00:38:40;9.80;77.50
66128;DHT22;52925;52.436;-1.952;2023-02-15T00:40:00;9.80;77.40
66128;DHT22;52925;52.436;-1.952;2023-02-15T00:41:23;9.80;77.40
66128;DHT22;52925;52.436;-1.952;2023-02-15T00:42:44;9.80;77.30
66128;DHT22;52925;52.436;-1.952;2023-02-15T00:44:04;9.80;77.30
66128;DHT22;52925;52.436;-1.952;2023-02-15T00:45:26;9.80;77.30
66128;DHT22;52925;52.436;-1.952;2023-02-15T00:46:47;9.80;77.30
66128;DHT22;52925;52.436;-1.952;2023-02-15T00:48:08;9.80;77.30
66128;DHT22;52925;52.436;-1.952;2023-02-15T00:49:28;9.80;77.30
66128;DHT22;52925;52.436;-1.952;2023-02-15T00:50:50;9.80;77.30
66128;DHT22;52925;52.436;-1.952;2023-02-15T00:52:11;9.80;77.30
66128;DHT22;52925;52.436;-1.952;2023-02-15T00:53:32;9.80;77.30
66128;DHT22;52925;52.436;-1.952;2023-02-15T00:54:53;9.70;77.30
66128;DHT22;52925;52.436;-1.952;2023-02-15T00:56:14;9.70;77.30
66128;DHT22;52925;52.436;-1.952;2023-02-15T00:57:34;9.80;77.30
66128;DHT22;52925;52.436;-1.952;2023-02-15T00:58:55;9.80;77.30
66128;DHT22;52925;52.436;-1.952;2023-02-15T01:00:15;9.80;77.30
66128;DHT22;52925;52.436;-1.952;2023-02-15T01:01:37;9.80;77.20
66128;DHT22;52925;52.436;-1.952;2023-02-15T01:02:58;9.80;77.20
66128;DHT22;52925;52.436;-1.952;2023-02-15T01:04:18;9.80;77.20
66128;DHT22;52925;52.436;-1.952;2023-02-15T01:05:39;9.70;77.20
66128;DHT22;52925;52.436;-1.952;2023-02-15T01:06:59;9.80;77.20
66128;DHT22;52925;52.436;-1.952;2023-02-15T01:08:21;9.70;77.20
66128;DHT22;52925;52.436;-1.952;2023-02-15T01:09:41;9.70;77.20
66128;DHT22;52925;52.436;-1.952;2023-02-15T01:11:04;9.70;77.20
66128;DHT22;52925;52.436;-1.952;2023-02-15T01:12:24;9.70;77.20
66128;DHT22;52925;52.436;-1.952;2023-02-15T01:13:44;9.70;77.20
66128;DHT22;52925;52.436;-1.952;2023-02-15T01:15:05;9.80;77.30
66128;DHT22;52925;52.436;-1.952;2023-02-15T01:16:27;9.70;77.20
66128;DHT22;52925;52.436;-1.952;2023-02-15T01:17:49;9.70;77.20
66128;DHT22;52925;52.436;-1.952;2023-02-15T01:19:12;9.70;77.10
66128;DHT22;52925;52.436;-1.952;2023-02-15T01:20:35;9.70;77.80
66128;DHT22;52925;52.436;-1.952;2023-02-15T01:21:58;9.70;77.10
66128;DHT22;52925;52.436;-1.952;2023-02-15T01:23:19;9.70;77.10
66128;DHT22;52925;52.436;-1.952;2023-02-15T01:24:39;9.70;77.10
66128;DHT22;52925;52.436;-1.952;2023-02-15T01:26:01;9.70;77.10
66128;DHT22;52925;52.436;-1.952;2023-02-15T01:27:21;9.70;77.10
66128;DHT22;52925;52.436;-1.952;2023-02-15T01:28:42;9.70;77.10
66128;DHT22;52925;52.436;-1.952;2023-02-15T01:30:06;9.70;77.10
66128;DHT22;52925;52.436;-1.952;2023-02-15T01:31:28;9.70;77.10
66128;DHT22;52925;52.436;-1.952;2023-02-15T01:32:50;9.70;77.10
66128;DHT22;52925;52.436;-1.952;2023-02-15T01:34:10;9.70;77.10
66128;DHT22;52925;52.436;-1.952;2023-02-15T01:35:32;9.70;77.10
66128;DHT22;52925;52.436;-1.952;2023-02-15T01:36:52;9.70;77.10
66128;DHT22;52925;52.436;-1.952;2023-02-15T01:38:13;9.70;77.00
66128;DHT22;52925;52.436;-1.952;2023-02-15T01:39:33;9.70;77.10
66128;DHT22;52925;52.436;-1.952;2023-02-15T01:40:54;9.70;77.00
66128;DHT22;52925;52.436;-1.952;2023-02-15T01:42:35;9.70;77.00
66128;DHT22;52925;52.436;-1.952;2023-02-15T01:43:58;9.70;76.90
66128;DHT22;52925;52.436;-1.952;2023-02-15T01:45:22;9.70;77.00
66128;DHT22;52925;52.436;-1.952;2023-02-15T01:46:47;9.70;76.90
66128;DHT22;52925;52.436;-1.952;2023-02-15T01:48:18;9.60;76.90
66128;DHT22;52925;52.436;-1.952;2023-02-15T01:49:43;9.60;76.90
66128;DHT22;52925;52.436;-1.952;2023-02-15T01:51:05;9.60;76.80
66128;DHT22;52925;52.436;-1.952;2023-02-15T01:52:26;9.60;76.80
66128;DHT22;52925;52.436;-1.952;2023-02-15T01:53:49;9.60;76.80
66128;DHT22;52925;52.436;-1.952;2023-02-15T01:55:11;9.60;76.80
66128;DHT22;52925;52.436;-1.952;2023-02-15T01:56:34;9.70;76.80
66128;DHT22;52925;52.436;-1.952;2023-02-15T01:57:56;9.60;76.70
66128;DHT22;52925;52.436;-1.952;2023-02-15T01:59:19;9.60;76.70
66128;DHT22;52925;52.436;-1.952;2023-02-15T02:00:42;9.60;76.70
66128;DHT22;52925;52.436;-1.952;2023-02-15T02:02:05;9.60;76.70
66128;DHT22;52925;52.436;-1.952;2023-02-15T02:03:35;9.60;76.70
66128;DHT22;52925;52.436;-1.952;2023-02-15T02:05:01;9.60;76.70
66128;DHT22;52925;52.436;-1.952;2023-02-15T02:06:26;9.60;76.70
66128;DHT22;52925;52.436;-1.952;2023-02-15T02:07:50;9.60;76.60
66128;DHT22;52925;52.436;-1.952;2023-02-15T02:09:11;9.60;76.60
66128;DHT22;52925;52.436;-1.952;2023-02-15T02:10:32;9.60;76.60
66128;DHT22;52925;52.436;-1.952;2023-02-15T02:11:53;9.60;76.70
66128;DHT22;52925;52.436;-1.952;2023-02-15T02:13:13;9.60;76.60
66128;DHT22;52925;52.436;-1.952;2023-02-15T02:14:35;9.60;76.60
66128;DHT22;52925;52.436;-1.952;2023-02-15T02:16:00;9.60;76.60
66128;DHT22;52925;52.436;-1.952;2023-02-15T02:17:31;9.60;76.50
66128;DHT22;52925;52.436;-1.952;2023-02-15T02:19:10;9.60;76.50
66128;DHT22;52925;52.436;-1.952;2023-02-15T02:24:55;9.60;76.40
66128;DHT22;52925;52.436;-1.952;2023-02-15T02:27:05;9.60;76.50
66128;DHT22;52925;52.436;-1.952;2023-02-15T02:29:11;9.60;76.50
66128;DHT22;52925;52.436;-1.952;2023-02-15T02:30:49;9.60;76.40
66128;DHT22;52925;52.436;-1.952;2023-02-15T02:34:13;9.60;76.40
66128;DHT22;52925;52.436;-1.952;2023-02-15T02:35:41;9.60;76.40
66128;DHT22;52925;52.436;-1.952;2023-02-15T02:37:11;9.60;76.40
66128;DHT22;52925;52.436;-1.952;2023-02-15T02:38:42;9.60;76.40
66128;DHT22;52925;52.436;-1.952;2023-02-15T02:40:08;9.50;76.30
66128;DHT22;52925;52.436;-1.952;2023-02-15T02:41:37;9.50;76.30
66128;DHT22;52925;52.436;-1.952;2023-02-15T02:43:01;9.50;76.30
66128;DHT22;52925;52.436;-1.952;2023-02-15T02:44:28;9.50;76.20
66128;DHT22;52925;52.436;-1.952;2023-02-15T02:45:55;9.50;76.20
66128;DHT22;52925;52.436;-1.952;2023-02-15T02:47:19;9.60;76.20
66128;DHT22;52925;52.436;-1.952;2023-02-15T02:48:43;9.60;76.20
66128;DHT22;52925;52.436;-1.952;2023-02-15T02:50:12;9.50;76.10
66128;DHT22;52925;52.436;-1.952;2023-02-15T02:51:34;9.50;76.10
66128;DHT22;52925;52.436;-1.952;2023-02-15T02:52:56;9.50;76.00
66128;DHT22;52925;52.436;-1.952;2023-02-15T02:54:17;9.50;76.00
66128;DHT22;52925;52.436;-1.952;2023-02-15T02:55:43;9.50;76.00
66128;DHT22;52925;52.436;-1.952;2023-02-15T02:57:08;9.50;76.00
66128;DHT22;52925;52.436;-1.952;2023-02-15T02:58:33;9.50;76.00
66128;DHT22;52925;52.436;-1.952;2023-02-15T02:59:58;9.50;75.90
66128;DHT22;52925;52.436;-1.952;2023-02-15T03:01:27;9.50;76.00
66128;DHT22;52925;52.436;-1.952;2023-02-15T03:02:52;9.50;76.00
66128;DHT22;52925;52.436;-1.952;2023-02-15T03:04:16;9.50;76.00
66128;DHT22;52925;52.436;-1.952;2023-02-15T03:05:43;9.50;76.00
66128;DHT22;52925;52.436;-1.952;2023-02-15T03:07:07;9.50;76.00
66128;DHT22;52925;52.436;-1.952;2023-02-15T03:08:32;9.50;76.00
66128;DHT22;52925;52.436;-1.952;2023-02-15T03:09:58;9.50;75.90
66128;DHT22;52925;52.436;-1.952;2023-02-15T03:11:18;9.50;75.90
66128;DHT22;52925;52.436;-1.952;2023-02-15T03:12:39;9.50;75.90
66128;DHT22;52925;52.436;-1.952;2023-02-15T03:14:01;9.50;75.80
66128;DHT22;52925;52.436;-1.952;2023-02-15T03:15:24;9.50;75.90
66128;DHT22;52925;52.436;-1.952;2023-02-15T03:16:47;9.50;75.80
66128;DHT22;52925;52.436;-1.952;2023-02-15T03:18:09;9.50;75.80
66128;DHT22;52925;52.436;-1.952;2023-02-15T03:19:31;9.50;75.90
66128;DHT22;52925;52.436;-1.952;2023-02-15T03:20:55;9.50;75.80
66128;DHT22;52925;52.436;-1.952;2023-02-15T03:22:21;9.50;75.80
66128;DHT22;52925;52.436;-1.952;2023-02-15T03:23:45;9.50;75.80
66128;DHT22;52925;52.436;-1.952;2023-02-15T03:25:09;9.40;75.80
66128;DHT22;52925;52.436;-1.952;2023-02-15T03:26:32;9.40;75.70
66128;DHT22;52925;52.436;-1.952;2023-02-15T03:27:55;9.50;75.70
66128;DHT22;52925;52.436;-1.952;2023-02-15T03:29:22;9.50;75.60
66128;DHT22;52925;52.436;-1.952;2023-02-15T03:30:46;9.40;75.60
66128;DHT22;52925;52.436;-1.952;2023-02-15T03:32:11;9.40;75.60
66128;DHT22;52925;52.436;-1.952;2023-02-15T03:33:35;9.40;75.60
66128;DHT22;52925;52.436;-1.952;2023-02-15T03:34:55;9.40;75.70
66128;DHT22;52925;52.436;-1.952;2023-02-15T03:36:21;9.40;75.70
66128;DHT22;52925;52.436;-1.952;2023-02-15T03:37:46;9.40;75.70
66128;DHT22;52925;52.436;-1.952;2023-02-15T03:39:15;9.40;75.60
66128;DHT22;52925;52.436;-1.952;2023-02-15T03:40:39;9.40;75.70
66128;DHT22;52925;52.436;-1.952;2023-02-15T03:42:26;9.40;75.70
66128;DHT22;52925;52.436;-1.952;2023-02-15T03:43:51;9.40;75.60
66128;DHT22;52925;52.436;-1.952;2023-02-15T03:45:14;9.40;75.70
66128;DHT22;52925;52.436;-1.952;2023-02-15T03:46:42;9.40;75.60
66128;DHT22;52925;52.436;-1.952;2023-02-15T03:48:04;9.40;75.60
66128;DHT22;52925;52.436;-1.952;2023-02-15T03:49:32;9.40;75.50
66128;DHT22;52925;52.436;-1.952;2023-02-15T03:50:57;9.40;75.50
66128;DHT22;52925;52.436;-1.952;2023-02-15T03:52:37;9.40;75.50
66128;DHT22;52925;52.436;-1.952;2023-02-15T03:53:59;9.40;75.50
66128;DHT22;52925;52.436;-1.952;2023-02-15T03:55:20;9.40;75.50
66128;DHT22;52925;52.436;-1.952;2023-02-15T03:56:41;9.40;75.50
66128;DHT22;52925;52.436;-1.952;2023-02-15T03:58:22;9.40;75.50
66128;DHT22;52925;52.436;-1.952;2023-02-15T04:00:04;9.40;75.50
66128;DHT22;52925;52.436;-1.952;2023-02-15T04:01:49;9.40;75.40
66128;DHT22;52925;52.436;-1.952;2023-02-15T04:03:23;9.40;75.50
66128;DHT22;52925;52.436;-1.952;2023-02-15T04:04:47;9.40;75.40
66128;DHT22;52925;52.436;-1.952;2023-02-15T04:06:07;9.40;75.40
66128;DHT22;52925;52.436;-1.952;2023-02-15T04:07:27;9.40;75.50
66128;DHT22;52925;52.436;-1.952;2023-02-15T04:08:49;9.40;75.50
66128;DHT22;52925;52.436;-1.952;2023-02-15T04:10:27;9.40;75.50
66128;DHT22;52925;52.436;-1.952;2023-02-15T04:12:06;9.30;75.50
66128;DHT22;52925;52.436;-1.952;2023-02-15T04:13:31;9.40;75.50
66128;DHT22;52925;52.436;-1.952;2023-02-15T04:14:52;9.40;75.40
66128;DHT22;52925;52.436;-1.952;2023-02-15T04:16:30;9.40;75.50
66128;DHT22;52925;52.436;-1.952;2023-02-15T04:17:50;9.30;75.40
66128;DHT22;52925;52.436;-1.952;2023-02-15T04:19:11;9.40;75.50
66128;DHT22;52925;52.436;-1.952;2023-02-15T04:20:49;9.30;75.40
66128;DHT22;52925;52.436;-1.952;2023-02-15T04:22:28;9.40;75.40
66128;DHT22;52925;52.436;-1.952;2023-02-15T04:24:09;9.30;75.40
66128;DHT22;52925;52.436;-1.952;2023-02-15T04:25:47;9.40;75.50
66128;DHT22;52925;52.436;-1.952;2023-02-15T04:27:08;9.30;75.40
66128;DHT22;52925;52.436;-1.952;2023-02-15T04:28:29;9.30;75.40
66128;DHT22;52925;52.436;-1.952;2023-02-15T04:29:50;9.30;75.40
66128;DHT22;52925;52.436;-1.952;2023-02-15T04:31:11;9.30;75.50
66128;DHT22;52925;52.436;-1.952;2023-02-15T04:32:31;9.30;75.50
66128;DHT22;52925;52.436;-1.952;2023-02-15T04:33:51;9.30;75.50
66128;DHT22;52925;52.436;-1.952;2023-02-15T04:35:13;9.30;75.50
66128;DHT22;52925;52.436;-1.952;2023-02-15T04:36:34;9.30;75.50
66128;DHT22;52925;52.436;-1.952;2023-02-15T04:37:53;9.30;75.50
66128;DHT22;52925;52.436;-1.952;2023-02-15T04:39:17;9.30;75.50
66128;DHT22;52925;52.436;-1.952;2023-02-15T04:40:38;9.30;75.50
66128;DHT22;52925;52.436;-1.952;2023-02-15T04:41:59;9.30;75.50
66128;DHT22;52925;52.436;-1.952;2023-02-15T04:43:18;9.30;75.50
66128;DHT22;52925;52.436;-1.952;2023-02-15T04:44:39;9.30;75.50
66128;DHT22;52925;52.436;-1.952;2023-02-15T04:45:59;9.30;75.50
66128;DHT22;52925;52.436;-1.952;2023-02-15T04:47:20;9.30;75.60
66128;DHT22;52925;52.436;-1.952;2023-02-15T04:48:40;9.30;75.50
66128;DHT22;52925;52.436;-1.952;2023-02-15T04:50:01;9.30;75.50
66128;DHT22;52925;52.436;-1.952;2023-02-15T04:51:22;9.30;75.50
66128;DHT22;52925;52.436;-1.952;2023-02-15T04:52:42;9.30;75.50
66128;DHT22;52925;52.436;-1.952;2023-02-15T04:54:03;9.30;75.60
66128;DHT22;52925;52.436;-1.952;2023-02-15T04:55:25;9.30;75.60
66128;DHT22;52925;52.436;-1.952;2023-02-15T04:56:46;9.30;75.60
66128;DHT22;52925;52.436;-1.952;2023-02-15T04:58:06;9.30;75.50
66128;DHT22;52925;52.436;-1.952;2023-02-15T04:59:27;9.30;75.60
66128;DHT22;52925;52.436;-1.952;2023-02-15T05:00:46;9.30;75.50
66128;DHT22;52925;52.436;-1.952;2023-02-15T05:02:07;9.30;75.60
66128;DHT22;52925;52.436;-1.952;2023-02-15T05:03:27;9.30;75.60
66128;DHT22;52925;52.436;-1.952;2023-02-15T05:04:48;9.30;75.60
66128;DHT22;52925;52.436;-1.952;2023-02-15T05:06:08;9.30;75.70
66128;DHT22;52925;52.436;-1.952;2023-02-15T05:07:28;9.30;75.60
66128;DHT22;52925;52.436;-1.952;2023-02-15T05:08:49;9.30;75.50
66128;DHT22;52925;52.436;-1.952;2023-02-15T05:10:10;9.30;75.50
66128;DHT22;52925;52.436;-1.952;2023-02-15T05:11:32;9.30;75.60
66128;DHT22;52925;52.436;-1.952;2023-02-15T05:12:52;9.30;75.60
66128;DHT22;52925;52.436;-1.952;2023-02-15T05:14:13;9.30;75.60
66128;DHT22;52925;52.436;-1.952;2023-02-15T05:15:33;9.30;75.60
66128;DHT22;52925;52.436;-1.952;2023-02-15T05:16:54;9.30;75.60
66128;DHT22;52925;52.436;-1.952;2023-02-15T05:18:16;9.30;75.50
66128;DHT22;52925;52.436;-1.952;2023-02-15T05:19:37;9.30;75.50
66128;DHT22;52925;52.436;-1.952;2023-02-15T05:20:58;9.30;75.50
66128;DHT22;52925;52.436;-1.952;2023-02-15T05:22:18;9.30;75.50
66128;DHT22;52925;52.436;-1.952;2023-02-15T05:23:39;9.20;75.50
66128;DHT22;52925;52.436;-1.952;2023-02-15T05:24:59;9.30;75.50
66128;DHT22;52925;52.436;-1.952;2023-02-15T05:26:39;9.30;75.50
66128;DHT22;52925;52.436;-1.952;2023-02-15T05:28:17;9.30;75.60
66128;DHT22;52925;52.436;-1.952;2023-02-15T05:29:41;9.20;75.60
66128;DHT22;52925;52.436;-1.952;2023-02-15T05:31:04;9.30;75.50
66128;DHT22;52925;52.436;-1.952;2023-02-15T05:32:26;9.30;75.50
66128;DHT22;52925;52.436;-1.952;2023-02-15T05:33:46;9.20;76.20
66128;DHT22;52925;52.436;-1.952;2023-02-15T05:35:12;9.30;75.50
66128;DHT22;52925;52.436;-1.952;2023-02-15T05:36:33;9.20;75.40
66128;DHT22;52925;52.436;-1.952;2023-02-15T05:37:54;9.30;75.70
66128;DHT22;52925;52.436;-1.952;2023-02-15T05:39:14;9.20;75.40
66128;DHT22;52925;52.436;-1.952;2023-02-15T05:40:35;9.20;75.50
66128;DHT22;52925;52.436;-1.952;2023-02-15T05:42:00;9.20;75.40
66128;DHT22;52925;52.436;-1.952;2023-02-15T05:43:21;9.20;75.40
66128;DHT22;52925;52.436;-1.952;2023-02-15T05:44:43;9.30;75.50
66128;DHT22;52925;52.436;-1.952;2023-02-15T05:46:02;9.30;75.50
66128;DHT22;52925;52.436;-1.952;2023-02-15T05:47:23;9.20;75.50
66128;DHT22;52925;52.436;-1.952;2023-02-15T05:48:45;9.20;75.40
66128;DHT22;52925;52.436;-1.952;2023-02-15T05:50:06;9.20;75.40
66128;DHT22;52925;52.436;-1.952;2023-02-15T05:51:27;9.20;75.40
66128;DHT22;52925;52.436;-1.952;2023-02-15T05:52:48;9.20;75.40
66128;DHT22;52925;52.436;-1.952;2023-02-15T05:54:08;9.20;75.40
66128;DHT22;52925;52.436;-1.952;2023-02-15T05:55:29;9.30;75.40
66128;DHT22;52925;52.436;-1.952;2023-02-15T05:56:50;9.20;75.40
66128;DHT22;52925;52.436;-1.952;2023-02-15T05:58:12;9.20;75.40
66128;DHT22;52925;52.436;-1.952;2023-02-15T05:59:33;9.20;75.50
66128;DHT22;52925;52.436;-1.952;2023-02-15T06:00:53;9.20;75.40
66128;DHT22;52925;52.436;-1.952;2023-02-15T06:02:14;9.20;75.40
66128;DHT22;52925;52.436;-1.952;2023-02-15T06:03:34;9.20;75.50
66128;DHT22;52925;52.436;-1.952;2023-02-15T06:04:54;9.20;75.50
66128;DHT22;52925;52.436;-1.952;2023-02-15T06:06:15;9.20;75.50
66128;DHT22;52925;52.436;-1.952;2023-02-15T06:07:35;9.20;75.40
66128;DHT22;52925;52.436;-1.952;2023-02-15T06:08:56;9.20;75.40
66128;DHT22;52925;52.436;-1.952;2023-02-15T06:10:17;9.20;75.40
66128;DHT22;52925;52.436;-1.952;2023-02-15T06:11:38;9.20;75.40
66128;DHT22;52925;52.436;-1.952;2023-02-15T06:12:59;9.20;75.40
66128;DHT22;52925;52.436;-1.952;2023-02-15T06:14:21;9.20;75.40
66128;DHT22;52925;52.436;-1.952;2023-02-15T06:15:42;9.20;75.40
66128;DHT22;52925;52.436;-1.952;2023-02-15T06:17:03;9.20;75.40
66128;DHT22;52925;52.436;-1.952;2023-02-15T06:18:24;9.20;75.40
66128;DHT22;52925;52.436;-1.952;2023-02-15T06:19:44;9.20;75.30
66128;DHT22;52925;52.436;-1.952;2023-02-15T06:21:05;9.20;75.40
66128;DHT22;52925;52.436;-1.952;2023-02-15T06:22:26;9.20;75.30
66128;DHT22;52925;52.436;-1.952;2023-02-15T06:23:47;9.20;75.30
66128;DHT22;52925;52.436;-1.952;2023-02-15T06:25:07;9.20;75.40
66128;DHT22;52925;52.436;-1.952;2023-02-15T06:26:30;9.20;75.40
66128;DHT22;52925;52.436;-1.952;2023-02-15T06:27:51;9.10;75.30
66128;DHT22;52925;52.436;-1.952;2023-02-15T06:29:12;9.20;75.40
66128;DHT22;52925;52.436;-1.952;2023-02-15T06:30:34;9.20;75.40
66128;DHT22;52925;52.436;-1.952;2023-02-15T06:31:55;9.20;75.40
66128;DHT22;52925;52.436;-1.952;2023-02-15T06:33:16;9.10;75.30
66128;DHT22;52925;52.436;-1.952;2023-02-15T06:34:37;9.20;75.40
66128;DHT22;52925;52.436;-1.952;2023-02-15T06:35:58;9.20;75.30
66128;DHT22;52925;52.436;-1.952;2023-02-15T06:37:18;9.20;75.30
66128;DHT22;52925;52.436;-1.952;2023-02-15T06:38:39;9.20;75.40
66128;DHT22;52925;52.436;-1.952;2023-02-15T06:40:00;9.20;75.30
66128;DHT22;52925;52.436;-1.952;2023-02-15T06:41:22;9.10;75.30
66128;DHT22;52925;52.436;-1.952;2023-02-15T06:42:42;9.20;75.40
66128;DHT22;52925;52.436;-1.952;2023-02-15T06:44:04;9.20;75.30
66128;DHT22;52925;52.436;-1.952;2023-02-15T06:45:25;9.10;75.30
66128;DHT22;52925;52.436;-1.952;2023-02-15T06:46:47;9.20;75.30
66128;DHT22;52925;52.436;-1.952;2023-02-15T06:48:08;9.10;75.30
66128;DHT22;52925;52.436;-1.952;2023-02-15T06:49:30;9.20;75.30
66128;DHT22;52925;52.436;-1.952;2023-02-15T06:50:51;9.20;75.30
66128;DHT22;52925;52.436;-1.952;2023-02-15T06:52:12;9.10;75.30
66128;DHT22;52925;52.436;-1.952;2023-02-15T06:53:33;9.10;75.30
66128;DHT22;52925;52.436;-1.952;2023-02-15T06:54:54;9.20;75.30
66128;DHT22;52925;52.436;-1.952;2023-02-15T06:56:15;9.10;75.30
66128;DHT22;52925;52.436;-1.952;2023-02-15T06:57:37;9.10;75.30
66128;DHT22;52925;52.436;-1.952;2023-02-15T06:58:57;9.10;75.30
66128;DHT22;52925;52.436;-1.952;2023-02-15T07:00:19;9.20;75.40
66128;DHT22;52925;52.436;-1.952;2023-02-15T07:01:41;9.10;75.30
66128;DHT22;52925;52.436;-1.952;2023-02-15T07:03:04;9.20;75.30
66128;DHT22;52925;52.436;-1.952;2023-02-15T07:04:25;9.10;75.30
66128;DHT22;52925;52.436;-1.952;2023-02-15T07:05:48;9.10;75.30
66128;DHT22;52925;52.436;-1.952;2023-02-15T07:07:09;9.10;75.20
66128;DHT22;52925;52.436;-1.952;2023-02-15T07:08:30;9.10;75.30
66128;DHT22;52925;52.436;-1.952;2023-02-15T07:09:51;9.10;75.30
66128;DHT22;52925;52.436;-1.952;2023-02-15T07:11:12;9.10;75.30
66128;DHT22;52925;52.436;-1.952;2023-02-15T07:12:50;9.10;75.30
66128;DHT22;52925;52.436;-1.952;2023-02-15T07:14:12;9.10;75.30
66128;DHT22;52925;52.436;-1.952;2023-02-15T07:15:32;9.10;75.30
66128;DHT22;52925;52.436;-1.952;2023-02-15T07:16:53;9.10;75.30
66128;DHT22;52925;52.436;-1.952;2023-02-15T07:18:15;9.10;75.40
66128;DHT22;52925;52.436;-1.952;2023-02-15T07:19:36;9.10;75.40
66128;DHT22;52925;52.436;-1.952;2023-02-15T07:20:57;9.10;75.40
66128;DHT22;52925;52.436;-1.952;2023-02-15T07:22:18;9.10;75.40
66128;DHT22;52925;52.436;-1.952;2023-02-15T07:23:39;9.10;75.40
66128;DHT22;52925;52.436;-1.952;2023-02-15T07:25:01;9.10;75.40
66128;DHT22;52925;52.436;-1.952;2023-02-15T07:26:21;9.10;75.40
66128;DHT22;52925;52.436;-1.952;2023-02-15T07:27:42;9.10;75.40
66128;DHT22;52925;52.436;-1.952;2023-02-15T07:29:04;9.10;75.50
66128;DHT22;52925;52.436;-1.952;2023-02-15T07:30:25;9.10;75.40
66128;DHT22;52925;52.436;-1.952;2023-02-15T07:31:46;9.10;75.40
66128;DHT22;52925;52.436;-1.952;2023-02-15T07:33:06;9.10;75.40
66128;DHT22;52925;52.436;-1.952;2023-02-15T07:34:47;9.10;75.40
66128;DHT22;52925;52.436;-1.952;2023-02-15T07:36:09;9.10;75.40
66128;DHT22;52925;52.436;-1.952;2023-02-15T07:37:31;9.10;75.50
66128;DHT22;52925;52.436;-1.952;2023-02-15T07:38:52;9.10;75.50
66128;DHT22;52925;52.436;-1.952;2023-02-15T07:40:13;9.10;75.50
66128;DHT22;52925;52.436;-1.952;2023-02-15T07:41:34;9.10;75.50
66128;DHT22;52925;52.436;-1.952;2023-02-15T07:43:03;9.10;75.50
66128;DHT22;52925;52.436;-1.952;2023-02-15T07:44:24;9.10;75.40
66128;DHT22;52925;52.436;-1.952;2023-02-15T07:45:45;9.10;75.40
66128;DHT22;52925;52.436;-1.952;2023-02-15T07:47:06;9.10;75.50
66128;DHT22;52925;52.436;-1.952;2023-02-15T07:48:27;9.10;75.50
66128;DHT22;52925;52.436;-1.952;2023-02-15T07:49:50;9.10;75.50
66128;DHT22;52925;52.436;-1.952;2023-02-15T07:51:11;9.10;75.50
66128;DHT22;52925;52.436;-1.952;2023-02-15T07:52:33;9.10;75.50
66128;DHT22;52925;52.436;-1.952;2023-02-15T07:53:54;9.10;75.50
66128;DHT22;52925;52.436;-1.952;2023-02-15T07:55:15;9.10;75.50
66128;DHT22;52925;52.436;-1.952;2023-02-15T07:56:36;9.10;75.50
66128;DHT22;52925;52.436;-1.952;2023-02-15T07:57:56;9.10;75.50
66128;DHT22;52925;52.436;-1.952;2023-02-15T07:59:17;9.10;75.50
66128;DHT22;52925;52.436;-1.952;2023-02-15T08:00:38;9.10;75.50
66128;DHT22;52925;52.436;-1.952;2023-02-15T08:02:13;9.10;75.50
66128;DHT22;52925;52.436;-1.952;2023-02-15T08:03:34;9.10;75.50
66128;DHT22;52925;52.436;-1.952;2023-02-15T08:04:57;9.10;75.50
66128;DHT22;52925;52.436;-1.952;2023-02-15T08:06:18;9.10;75.50
66128;DHT22;52925;52.436;-1.952;2023-02-15T08:07:39;9.10;75.50
66128;DHT22;52925;52.436;-1.952;2023-02-15T08:09:00;9.10;75.50
66128;DHT22;52925;52.436;-1.952;2023-02-15T08:10:21;9.00;75.40
66128;DHT22;52925;52.436;-1.952;2023-02-15T08:12:02;9.10;75.50
66128;DHT22;52925;52.436;-1.952;2023-02-15T08:13:24;9.10;75.60
66128;DHT22;52925;52.436;-1.952;2023-02-15T08:14:44;9.10;75.60
66128;DHT22;52925;52.436;-1.952;2023-02-15T08:16:05;9.00;75.60
66128;DHT22;52925;52.436;-1.952;2023-02-15T08:17:25;9.10;75.60
66128;DHT22;52925;52.436;-1.952;2023-02-15T08:18:46;9.10;75.50
66128;DHT22;52925;52.436;-1.952;2023-02-15T08:20:08;9.10;75.60
66128;DHT22;52925;52.436;-1.952;2023-02-15T08:21:29;9.00;75.60
66128;DHT22;52925;52.436;-1.952;2023-02-15T08:22:50;9.10;75.70
66128;DHT22;52925;52.436;-1.952;2023-02-15T08:24:14;9.00;75.60
66128;DHT22;52925;52.436;-1.952;2023-02-15T08:25:35;9.00;75.60
66128;DHT22;52925;52.436;-1.952;2023-02-15T08:26:56;9.10;75.60
66128;DHT22;52925;52.436;-1.952;2023-02-15T08:28:17;9.10;75.70
66128;DHT22;52925;52.436;-1.952;2023-02-15T08:29:38;9.00;75.60
66128;DHT22;52925;52.436;-1.952;2023-02-15T08:31:05;9.10;75.70
66128;DHT22;52925;52.436;-1.952;2023-02-15T08:32:24;9.10;75.60
66128;DHT22;52925;52.436;-1.952;2023-02-15T08:33:47;9.10;75.70
66128;DHT22;52925;52.436;-1.952;2023-02-15T08:35:09;9.10;75.70
66128;DHT22;52925;52.436;-1.952;2023-02-15T08:36:31;9.10;75.70
66128;DHT22;52925;52.436;-1.952;2023-02-15T08:37:52;9.00;75.70
66128;DHT22;52925;52.436;-1.952;2023-02-15T08:39:14;9.10;75.70
66128;DHT22;52925;52.436;-1.952;2023-02-15T08:40:36;9.10;75.80
66128;DHT22;52925;52.436;-1.952;2023-02-15T08:41:57;9.10;75.80
66128;DHT22;52925;52.436;-1.952;2023-02-15T08:43:18;9.00;75.80
66128;DHT22;52925;52.436;-1.952;2023-02-15T08:44:38;9.00;75.80
66128;DHT22;52925;52.436;-1.952;2023-02-15T08:45:59;9.00;75.80
66128;DHT22;52925;52.436;-1.952;2023-02-15T08:47:19;9.10;75.90
66128;DHT22;52925;52.436;-1.952;2023-02-15T08:48:41;9.00;75.80
66128;DHT22;52925;52.436;-1.952;2023-02-15T08:50:02;9.10;75.90
66128;DHT22;52925;52.436;-1.952;2023-02-15T08:51:26;9.00;75.90